Time;durP1;ratioP1;P1;durP2;ratioP2;P2;SDS_P1;SDS_P2;PMS_P1;PMS_P2;Temp;Humidity;BMP_temperature;BMP_pressure;BME280_temperature;BME280_humidity;BME280_pressure;Samples;Min_cycle;Max_cycle;Signal;HPM_P1;HPM_P2
2024/02/27 00:00:26;;;;;;;;;;;;;;;7.07;83.42;95836.97;30001;965;1894;-53
2024/02/27 00:00:57;;;;;;;;;;;;;;;7.07;83.82;95845.06;30001;983;1868;-53
2024/02/27 00:01:27;;;;;;;;;;;;;;;7.06;83.53;95843.47;30001;983;1868;-52
2024/02/27 00:01:59;;;;;;;;;;;;;;;7.06;82.96;95843.47;30001;983;1881;-52
2024/02/27 00:02:30;;;;;;;;;;;;;;;7.05;83.18;95836.47;30001;983;1877;-52
2024/02/27 00:03:01;;;;;;;;;;;;;;;7.05;83.44;95837.28;30001;983;1881;-53
2024/02/27 00:03:32;;;;;;;;;;;;;;;7.06;83.27;95843.47;30001;983;1877;-52
2024/02/27 00:04:03;;;;;;;;;;;;;;;7.05;83.44;95844.56;30001;983;1881;-53
2024/02/27 00:04:35;;;;;;;;;;;;;;;7.05;83.25;95844.56;30001;967;1901;-53
2024/02/27 00:05:06;;;;;;;;;;;;;;;7.05;83.23;95847.25;30001;982;1881;-53
2024/02/27 00:05:37;;;;;;;;;;;;;;;7.04;83.29;95842.97;30001;982;1877;-52
2024/02/27 00:06:08;;;;;;;;;;;;;;;7.02;83.31;95843.25;30001;982;1868;-53
2024/02/27 00:06:39;;;;;;;;;;;;;;;7.04;83.23;95845.66;30001;982;1868;-52
2024/02/27 00:07:11;;;;;;;;;;;;;;;7.01;83.85;95847.03;30001;982;1882;-52
2024/02/27 00:07:42;;;;;;;;;;;;;;;7.02;84.04;95845.16;30001;982;1877;-53
2024/02/27 00:08:14;;;;;;;;;;;;;;;7.01;84.92;95843.56;30001;983;1881;-53
2024/02/27 00:08:45;;;;;;;;;;;;;;;6.99;84.13;95838.44;30001;983;1876;-53
2024/02/27 00:09:18;;;;;;;;;;;;;;;6.98;84.71;95836.03;30001;983;1881;-52
2024/02/27 00:09:49;;;;;;;;;;;;;;;6.98;84.48;95838.75;30001;983;1877;-53
2024/02/27 00:10:20;;;;;;;;;;;;;;;6.97;84.79;95840.63;30001;983;1881;-52
2024/02/27 00:10:51;;;;;;;;;;;;;;;6.96;85.09;95844.44;30001;983;1777;-53
2024/02/27 00:11:22;;;;;;;;;;;;;;;6.95;84.62;95842.03;30001;983;1868;-52
2024/02/27 00:11:54;;;;;;;;;;;;;;;6.94;84.64;95838.53;30001;983;1868;-52
2024/02/27 00:12:25;;;;;;;;;;;;;;;6.94;84.83;95843.91;30001;982;1881;-52
2024/02/27 00:12:56;;;;;;;;;;;;;;;6.94;84.32;95843.12;30001;982;1877;-52
2024/02/27 00:13:27;;;;;;;;;;;;;;;6.93;85.06;95844.25;30001;982;1881;-52
2024/02/27 00:15:07;;;;;;;;;;;;;;;6.93;84.87;95846.94;89987;930;17000;-51
2024/02/27 00:15:39;;;;;;;;;;;;;;;6.93;84.62;95844.25;30001;983;1867;-53
2024/02/27 00:16:10;;;;;;;;;;;;;;;6.92;84.72;95840.75;30001;983;1867;-52
2024/02/27 00:16:41;;;;;;;;;;;;;;;6.92;84.70;95846.13;30001;983;1880;-52
2024/02/27 00:17:12;;;;;;;;;;;;;;;6.92;84.76;95853.44;30001;983;1876;-51
2024/02/27 00:17:43;;;;;;;;;;;;;;;6.92;84.82;95848.03;30001;983;1880;-53
2024/02/27 00:18:16;;;;;;;;;;;;;;;6.93;84.68;95849.63;30001;971;1894;-52
2024/02/27 00:18:50;;;;;;;;;;;;;;;6.92;84.88;95853.44;30001;983;1880;-52
2024/02/27 00:19:22;;;;;;;;;;;;;;;6.93;85.39;95849.63;30001;982;1876;-52
2024/02/27 00:19:53;;;;;;;;;;;;;;;6.92;85.68;95853.44;30001;982;1880;-52
2024/02/27 00:20:25;;;;;;;;;;;;;;;6.90;85.45;95845.63;30001;982;1876;-52
2024/02/27 00:20:56;;;;;;;;;;;;;;;6.90;85.84;95851.03;30001;982;1867;-52
2024/02/27 00:21:27;;;;;;;;;;;;;;;6.89;85.50;95848.63;30001;982;1867;-52
2024/02/27 00:21:59;;;;;;;;;;;;;;;6.89;85.59;95859.41;30001;972;1901;-52
2024/02/27 00:22:30;;;;;;;;;;;;;;;6.89;85.25;95856.72;30001;983;1876;-54
2024/02/27 00:23:01;;;;;;;;;;;;;;;6.89;85.31;95860.22;30001;983;1880;-51
2024/02/27 00:23:31;;;;;;;;;;;;;;;6.88;85.94;95860.50;30001;983;1875;-52
2024/02/27 00:24:03;;;;;;;;;;;;;;;6.88;86.68;95860.50;30001;983;1880;-52
2024/02/27 00:24:33;;;;;;;;;;;;;;;6.87;87.07;95861.59;30001;983;1876;-52
2024/02/27 00:25:05;;;;;;;;;;;;;;;6.86;86.22;95860.00;30001;983;1880;-52
2024/02/27 00:25:36;;;;;;;;;;;;;;;6.84;86.01;95865.69;30001;983;1876;-52
2024/02/27 00:26:07;;;;;;;;;;;;;;;6.86;86.99;95865.38;30000;983;1994;-53
2024/02/27 00:26:38;;;;;;;;;;;;;;;6.84;86.49;95856.78;30001;982;1854;-53
2024/02/27 00:27:09;;;;;;;;;;;;;;;6.83;86.31;95860.56;30001;982;1880;-52
2024/02/27 00:27:39;;;;;;;;;;;;;;;6.83;86.12;95865.97;30001;982;1876;-52
2024/02/27 00:28:10;;;;;;;;;;;;;;;6.82;86.53;95858.97;30001;982;1881;-52
2024/02/27 00:28:42;;;;;;;;;;;;;;;6.82;85.93;95859.78;30001;982;1876;-52
2024/02/27 00:30:21;;;;;;;;;;;;;;;6.79;88.49;95859.56;89987;930;17000;-52
2024/02/27 00:30:52;;;;;;;;;;;;;;;6.75;88.46;95869.31;30001;982;1869;-53
2024/02/27 00:31:26;;;;;;;;;;;;;;;6.73;87.99;95864.22;30001;983;1868;-53
2024/02/27 00:31:58;;;;;;;;;;;;;;;6.71;88.19;95864.53;30001;983;1867;-53
2024/02/27 00:32:28;;;;;;;;;;;;;;;6.70;87.99;95868.31;30001;983;1868;-52
2024/02/27 00:32:59;;;;;;;;;;;;;;;6.70;88.41;95868.31;30001;983;1880;-53
2024/02/27 00:33:30;;;;;;;;;;;;;;;6.68;88.05;95875.88;30001;983;1877;-52
2024/02/27 00:34:01;;;;;;;;;;;;;;;6.66;87.62;95878.06;30001;983;1881;-52
2024/02/27 00:34:32;;;;;;;;;;;;;;;6.66;87.33;95861.91;30001;961;1898;-53
2024/02/27 00:35:04;;;;;;;;;;;;;;;6.68;87.19;95861.59;30001;983;1868;-53
2024/02/27 00:35:35;;;;;;;;;;;;;;;6.68;87.20;95862.41;30001;983;1868;-52
2024/02/27 00:36:06;;;;;;;;;;;;;;;6.68;87.36;95865.09;30001;982;1881;-52
2024/02/27 00:36:37;;;;;;;;;;;;;;;6.68;88.11;95869.69;30001;982;1877;-52
2024/02/27 00:37:08;;;;;;;;;;;;;;;6.65;88.96;95870.28;30001;982;1881;-52
2024/02/27 00:37:39;;;;;;;;;;;;;;;6.63;88.60;95862.47;30001;982;1877;-52
2024/02/27 00:38:12;;;;;;;;;;;;;;;6.61;88.57;95864.66;30001;982;1881;-53
2024/02/27 00:38:44;;;;;;;;;;;;;;;6.61;88.07;95863.84;30001;983;1876;-53
2024/02/27 00:39:15;;;;;;;;;;;;;;;6.60;88.02;95865.75;30001;983;1880;-52
2024/02/27 00:39:46;;;;;;;;;;;;;;;6.60;88.04;95864.94;30001;983;1876;-52
2024/02/27 00:40:17;;;;;;;;;;;;;;;6.60;88.02;95868.44;30001;983;1868;-53
2024/02/27 00:40:48;;;;;;;;;;;;;;;6.60;88.43;95868.44;30001;983;1868;-53
2024/02/27 00:41:18;;;;;;;;;;;;;;;6.59;89.83;95872.25;30001;983;1881;-52
2024/02/27 00:41:49;;;;;;;;;;;;;;;6.58;89.83;95873.34;30001;983;1877;-70
2024/02/27 00:42:20;;;;;;;;;;;;;;;6.56;90.30;95878.25;30001;983;1881;-52
2024/02/27 00:42:51;;;;;;;;;;;;;;;6.54;90.33;95880.41;30001;983;1877;-52
2024/02/27 00:43:22;;;;;;;;;;;;;;;6.54;89.67;95874.22;30001;983;1881;-52
2024/02/27 00:43:53;;;;;;;;;;;;;;;6.54;89.95;95880.41;30001;982;1877;-53
2024/02/27 00:45:34;;;;;;;;;;;;;;;6.53;89.56;95884.22;89983;930;21000;-52
2024/02/27 00:46:05;;;;;;;;;;;;;;;6.53;89.31;95889.59;30001;982;1868;-53
2024/02/27 00:46:37;;;;;;;;;;;;;;;6.52;89.46;95885.31;30001;982;1868;-69
2024/02/27 00:47:08;;;;;;;;;;;;;;;6.52;88.74;95893.37;30001;982;1880;-53
2024/02/27 00:47:39;;;;;;;;;;;;;;;6.53;89.77;95889.59;30001;982;1876;-52
2024/02/27 00:48:09;;;;;;;;;;;;;;;6.54;89.80;95899.28;30001;983;1880;-52
2024/02/27 00:48:40;;;;;;;;;;;;;;;6.52;89.99;95887.19;30001;983;1875;-55
2024/02/27 00:49:11;;;;;;;;;;;;;;;6.53;89.31;95894.19;30001;983;1880;-52
2024/02/27 00:49:42;;;;;;;;;;;;;;;6.52;89.33;95893.37;30001;983;1876;-52
2024/02/27 00:50:13;;;;;;;;;;;;;;;6.52;89.26;95896.09;30001;983;1880;-53
2024/02/27 00:50:44;;;;;;;;;;;;;;;6.53;89.29;95900.37;30001;983;1876;-52
2024/02/27 00:51:15;;;;;;;;;;;;;;;6.54;89.04;95895.78;30001;983;1867;-52
2024/02/27 00:51:46;;;;;;;;;;;;;;;6.53;89.19;95905.78;30001;983;1867;-52
2024/02/27 00:52:17;;;;;;;;;;;;;;;6.54;88.97;95893.91;30001;983;1880;-53
2024/02/27 00:52:48;;;;;;;;;;;;;;;6.56;89.15;95905.19;30001;983;1876;-52
2024/02/27 00:53:21;;;;;;;;;;;;;;;6.55;89.38;95906.28;30001;970;1892;-52
2024/02/27 00:53:55;;;;;;;;;;;;;;;6.55;89.97;95903.59;30001;982;1876;-52
2024/02/27 00:54:26;;;;;;;;;;;;;;;6.55;91.41;95903.59;30001;982;1880;-52
2024/02/27 00:54:57;;;;;;;;;;;;;;;6.54;90.81;95906.56;30001;982;1876;-52
2024/02/27 00:55:28;;;;;;;;;;;;;;;6.53;90.35;95899.56;30001;983;1880;-52
2024/02/27 00:55:59;;;;;;;;;;;;;;;6.52;89.81;95904.16;30001;983;1875;-52
2024/02/27 00:56:30;;;;;;;;;;;;;;;6.52;89.84;95903.38;30001;983;1867;-52
2024/02/27 00:57:01;;;;;;;;;;;;;;;6.52;89.94;95906.84;30001;983;1867;-52
2024/02/27 00:57:33;;;;;;;;;;;;;;;6.52;89.93;95906.06;30001;983;1867;-52
2024/02/27 00:58:04;;;;;;;;;;;;;;;6.51;90.15;95902.56;30001;983;1867;-52
2024/02/27 00:58:35;;;;;;;;;;;;;;;6.52;89.81;95906.84;30001;983;1880;-52
2024/02/27 00:59:06;;;;;;;;;;;;;;;6.51;89.78;95905.25;30001;983;1876;-51
2024/02/27 00:59:37;;;;;;;;;;;;;;;6.50;89.89;95900.97;30001;983;1880;-52
2024/02/27 01:00:09;;;;;;;;;;;;;;;6.51;89.86;95899.06;30001;983;1876;-53
2024/02/27 01:00:40;;;;;;;;;;;;;;;6.51;90.16;95902.56;30001;982;1880;-52
2024/02/27 01:01:11;;;;;;;;;;;;;;;6.50;89.94;95900.97;30001;982;1876;-53
2024/02/27 01:01:42;;;;;;;;;;;;;;;6.50;89.93;95898.25;30001;982;1880;-52
2024/02/27 01:02:13;;;;;;;;;;;;;;;6.50;89.77;95895.56;30001;982;1876;-52
2024/02/27 01:02:44;;;;;;;;;;;;;;;6.51;89.84;95897.16;30001;982;1867;-52
2024/02/27 01:03:18;;;;;;;;;;;;;;;6.52;89.79;95897.97;30001;983;1867;-69
2024/02/27 01:03:49;;;;;;;;;;;;;;;6.52;89.84;95904.16;30001;964;1895;-69
2024/02/27 01:04:20;;;;;;;;;;;;;;;6.52;90.17;95901.47;30001;983;1862;-52
2024/02/27 01:04:51;;;;;;;;;;;;;;;6.52;90.23;95898.78;30001;983;1871;-52
2024/02/27 01:05:22;;;;;;;;;;;;;;;6.52;90.02;95900.66;30001;983;1876;-52
2024/02/27 01:05:54;;;;;;;;;;;;;;;6.52;89.81;95893.37;30001;983;1880;-52
2024/02/27 01:06:25;;;;;;;;;;;;;;;6.53;89.82;95899.56;30001;983;1876;-52
2024/02/27 01:06:56;;;;;;;;;;;;;;;6.54;89.77;95895.78;30001;983;1880;-52
2024/02/27 01:07:27;;;;;;;;;;;;;;;6.55;90.24;95898.19;30001;982;1876;-52
2024/02/27 01:07:58;;;;;;;;;;;;;;;6.56;89.82;95897.09;30001;982;1880;-69
2024/02/27 01:08:28;;;;;;;;;;;;;;;6.56;89.93;95896.31;30001;982;1876;-52
2024/02/27 01:08:59;;;;;;;;;;;;;;;6.56;89.72;95894.41;30001;982;1881;-52
2024/02/27 01:09:33;;;;;;;;;;;;;;;6.57;90.01;95901.41;30001;982;1863;-52
2024/02/27 01:10:04;;;;;;;;;;;;;;;6.58;89.35;95896.81;30001;983;1871;-52
2024/02/27 01:10:35;;;;;;;;;;;;;;;6.59;89.71;95893.81;30001;983;1875;-53
2024/02/27 01:11:09;;;;;;;;;;;;;;;6.59;89.39;95891.09;30001;983;1880;-52
2024/02/27 01:11:40;;;;;;;;;;;;;;;6.60;89.80;95900.78;30001;983;1875;-52
2024/02/27 01:12:11;;;;;;;;;;;;;;;6.61;89.39;95902.41;30001;983;1880;-52
2024/02/27 01:12:42;;;;;;;;;;;;;;;6.62;89.65;95897.81;30001;983;1876;-52
2024/02/27 01:13:17;;;;;;;;;;;;;;;6.61;89.86;95902.41;30001;983;1880;-52
2024/02/27 01:13:48;;;;;;;;;;;;;;;6.62;89.78;95908.59;30001;983;1876;-52
2024/02/27 01:14:19;;;;;;;;;;;;;;;6.62;89.39;95897.81;30001;983;1880;-52
2024/02/27 01:15:56;;;;;;;;;;;;;;;6.63;89.59;95910.19;89991;930;13000;-52
2024/02/27 01:16:28;;;;;;;;;;;;;;;6.63;89.90;95908.28;30001;982;1869;-53
2024/02/27 01:16:59;;;;;;;;;;;;;;;6.63;90.26;95913.69;30001;982;1869;-52
2024/02/27 01:17:31;;;;;;;;;;;;;;;6.63;89.83;95904.81;30001;982;1882;-52
2024/02/27 01:18:02;;;;;;;;;;;;;;;6.63;89.67;95907.50;30001;982;1877;-52
2024/02/27 01:18:33;;;;;;;;;;;;;;;6.63;89.63;95911.00;30001;983;1881;-52
2024/02/27 01:19:04;;;;;;;;;;;;;;;6.62;89.84;95909.38;30001;983;1877;-54
2024/02/27 01:19:35;;;;;;;;;;;;;;;6.62;89.84;95909.38;30001;983;1881;-52
2024/02/27 01:20:06;;;;;;;;;;;;;;;6.62;89.77;95904.00;30001;983;1769;-52
2024/02/27 01:20:37;;;;;;;;;;;;;;;6.61;89.82;95907.78;30001;983;1872;-52
2024/02/27 01:21:08;;;;;;;;;;;;;;;6.62;90.21;95903.19;30001;983;1877;-52
2024/02/27 01:21:42;;;;;;;;;;;;;;;6.62;89.74;95900.50;30001;983;1881;-53
2024/02/27 01:22:24;;;;;;;;;;;;;;;6.62;89.84;95901.31;30001;983;1877;-52
2024/02/27 01:22:56;;;;;;;;;;;;;;;6.63;89.54;95905.59;30001;982;1881;-52
2024/02/27 01:23:27;;;;;;;;;;;;;;;6.63;89.59;95902.91;30001;982;1877;-53
2024/02/27 01:23:58;;;;;;;;;;;;;;;6.64;89.35;95907.22;30001;982;1881;-53
2024/02/27 01:24:29;;;;;;;;;;;;;;;6.65;89.84;95908.81;30001;982;1877;-52
2024/02/27 01:25:00;;;;;;;;;;;;;;;6.66;89.66;95904.22;30001;982;1882;-52
2024/02/27 01:25:31;;;;;;;;;;;;;;;6.66;89.78;95905.03;30001;982;1864;-52
2024/02/27 01:26:02;;;;;;;;;;;;;;;6.66;89.83;95910.41;30001;983;1872;-53
2024/02/27 01:26:33;;;;;;;;;;;;;;;6.66;89.91;95910.41;30001;983;1876;-53
2024/02/27 01:27:05;;;;;;;;;;;;;;;6.66;89.93;95909.63;30001;983;1881;-52
2024/02/27 01:27:35;;;;;;;;;;;;;;;6.67;89.93;95911.22;30001;983;1877;-52
2024/02/27 01:28:06;;;;;;;;;;;;;;;6.66;89.75;95907.72;30001;983;1881;-51
2024/02/27 01:28:37;;;;;;;;;;;;;;;6.66;90.21;95909.63;30001;985;1877;-52
2024/02/27 01:29:08;;;;;;;;;;;;;;;6.66;90.01;95910.41;30001;983;1881;-52
2024/02/27 01:29:39;;;;;;;;;;;;;;;6.66;89.66;95906.91;30001;983;1877;-52
2024/02/27 01:30:11;;;;;;;;;;;;;;;6.67;89.37;95906.63;30001;982;1881;-52
2024/02/27 01:30:42;;;;;;;;;;;;;;;6.68;89.45;95902.84;30001;982;1864;-52
2024/02/27 01:31:13;;;;;;;;;;;;;;;6.70;89.77;95897.16;30001;982;1873;-53
2024/02/27 01:31:44;;;;;;;;;;;;;;;6.71;89.82;95902.25;30001;982;1877;-52
2024/02/27 01:32:16;;;;;;;;;;;;;;;6.72;90.28;95903.88;30001;982;1882;-52
2024/02/27 01:32:47;;;;;;;;;;;;;;;6.70;89.96;95906.03;30001;982;1877;-52
2024/02/27 01:33:18;;;;;;;;;;;;;;;6.71;89.63;95901.47;30001;982;1881;-53
2024/02/27 01:33:48;;;;;;;;;;;;;;;6.70;90.20;95900.66;30001;983;1876;-52
2024/02/27 01:34:20;;;;;;;;;;;;;;;6.69;89.86;95904.44;30001;980;1895;-53
2024/02/27 01:34:51;;;;;;;;;;;;;;;6.70;89.79;95897.16;30001;983;1877;-52
2024/02/27 01:35:23;;;;;;;;;;;;;;;6.69;89.55;95893.66;30001;983;1881;-52
2024/02/27 01:35:56;;;;;;;;;;;;;;;6.70;89.68;95900.66;30001;983;1864;-53
2024/02/27 01:36:31;;;;;;;;;;;;;;;6.70;89.45;95900.66;30001;983;1872;-52
2024/02/27 01:37:02;;;;;;;;;;;;;;;6.71;89.67;95896.88;30001;983;1877;-52
2024/02/27 01:37:34;;;;;;;;;;;;;;;6.71;89.42;95894.16;30001;980;1893;-52
2024/02/27 01:38:05;;;;;;;;;;;;;;;6.71;89.90;95893.37;30001;982;1877;-52
2024/02/27 01:38:36;;;;;;;;;;;;;;;6.71;89.38;95888.78;30001;982;1796;-52
2024/02/27 01:39:08;;;;;;;;;;;;;;;6.71;89.58;95887.97;30001;982;1877;-52
2024/02/27 01:39:39;;;;;;;;;;;;;;;6.71;89.24;95893.37;30001;982;1882;-52
2024/02/27 01:40:10;;;;;;;;;;;;;;;6.72;89.46;95890.38;30001;983;1876;-52
2024/02/27 01:40:41;;;;;;;;;;;;;;;6.72;89.21;95887.69;30001;983;1881;-52
2024/02/27 01:41:12;;;;;;;;;;;;;;;6.73;89.26;95883.91;30001;983;1863;-52
2024/02/27 01:41:45;;;;;;;;;;;;;;;6.72;89.45;95882.28;30001;983;1872;-52
2024/02/27 01:42:16;;;;;;;;;;;;;;;6.74;89.28;95890.09;30001;983;1877;-52
2024/02/27 01:42:47;;;;;;;;;;;;;;;6.76;89.25;95890.59;30001;983;1812;-53
2024/02/27 01:43:21;;;;;;;;;;;;;;;6.77;89.66;95888.72;30001;983;1877;-52
2024/02/27 01:43:52;;;;;;;;;;;;;;;6.76;89.07;95892.50;30001;983;1881;-52
2024/02/27 01:44:23;;;;;;;;;;;;;;;6.79;89.43;95886.53;30001;983;1877;-52
2024/02/27 01:44:55;;;;;;;;;;;;;;;6.81;88.93;95887.03;30001;972;1899;-52
2024/02/27 01:46:34;;;;;;;;;;;;;;;6.83;89.32;95893.72;89987;198;17000;-52
2024/02/27 01:47:06;;;;;;;;;;;;;;;6.84;89.20;95895.34;30001;983;1868;-52
2024/02/27 01:47:37;;;;;;;;;;;;;;;6.85;89.11;95896.12;30001;982;1869;-52
2024/02/27 01:48:08;;;;;;;;;;;;;;;6.84;88.82;95889.16;30001;982;1882;-52
2024/02/27 01:48:40;;;;;;;;;;;;;;;6.83;88.94;95892.94;30001;959;1845;-52
2024/02/27 01:49:12;;;;;;;;;;;;;;;6.82;89.27;95892.13;30001;982;1873;-52
2024/02/27 01:49:43;;;;;;;;;;;;;;;6.82;89.26;95891.34;30001;983;1876;-52
2024/02/27 01:50:17;;;;;;;;;;;;;;;6.80;89.81;95893.53;30001;983;1881;-53
2024/02/27 01:50:48;;;;;;;;;;;;;;;6.79;90.29;95891.91;30001;970;1897;-52
2024/02/27 01:51:19;;;;;;;;;;;;;;;6.78;90.37;95895.69;30001;983;1881;-53
2024/02/27 01:51:51;;;;;;;;;;;;;;;6.76;90.15;95887.91;30001;983;1877;-52
2024/02/27 01:52:22;;;;;;;;;;;;;;;6.75;90.33;95890.91;30001;983;1881;-52
2024/02/27 01:52:53;;;;;;;;;;;;;;;6.73;91.90;95888.50;30001;983;1877;-52
2024/02/27 01:53:24;;;;;;;;;;;;;;;6.72;91.37;95892.28;30001;983;1881;-53
2024/02/27 01:53:56;;;;;;;;;;;;;;;6.70;91.38;95878.28;30001;987;1864;-52
2024/02/27 01:54:27;;;;;;;;;;;;;;;6.69;90.81;95879.38;30001;983;1873;-52
2024/02/27 01:54:57;;;;;;;;;;;;;;;6.69;90.89;95882.06;30001;982;1877;-52
2024/02/27 01:55:28;;;;;;;;;;;;;;;6.69;90.65;95882.88;30001;982;1881;-52
2024/02/27 01:55:59;;;;;;;;;;;;;;;6.69;90.90;95880.19;30001;982;1877;-53
2024/02/27 01:56:30;;;;;;;;;;;;;;;6.69;91.30;95888.28;30001;982;1882;-52
2024/02/27 01:57:02;;;;;;;;;;;;;;;6.69;91.25;95890.16;30001;982;1877;-53
2024/02/27 01:57:33;;;;;;;;;;;;;;;6.68;90.99;95881.28;30001;983;1880;-53
2024/02/27 01:58:04;;;;;;;;;;;;;;;6.68;91.31;95883.16;30001;983;1876;-52
2024/02/27 01:58:35;;;;;;;;;;;;;;;6.68;93.63;95902.03;30001;983;1881;-52
2024/02/27 01:59:07;;;;;;;;;;;;;;;6.66;93.11;95898.84;30001;983;1863;-67
2024/02/27 01:59:41;;;;;;;;;;;;;;;6.65;92.55;95898.03;30001;983;1872;-52
2024/02/27 02:00:14;;;;;;;;;;;;;;;6.64;92.63;95896.44;30001;983;1877;-52
2024/02/27 02:01:06;;;;;;;;;;;;;;;6.63;93.62;95900.22;30001;984;1873;-51
2024/02/27 02:01:38;;;;;;;;;;;;;;;6.62;94.23;95898.59;30001;982;1882;-52
2024/02/27 02:02:10;;;;;;;;;;;;;;;6.62;94.39;95897.81;30001;982;1877;-52
2024/02/27 02:02:44;;;;;;;;;;;;;;;6.60;94.93;95895.41;30001;982;1881;-52
2024/02/27 02:03:15;;;;;;;;;;;;;;;6.57;95.45;95893.31;30001;982;1877;-52
2024/02/27 02:03:49;;;;;;;;;;;;;;;6.55;95.44;95886.63;30001;982;1882;-52
2024/02/27 02:04:20;;;;;;;;;;;;;;;6.53;95.08;95884.22;30001;982;1864;-52
2024/02/27 02:04:51;;;;;;;;;;;;;;;6.53;94.97;95886.91;30001;983;1872;-52
2024/02/27 02:05:22;;;;;;;;;;;;;;;6.53;94.65;95886.91;30001;983;1876;-70
2024/02/27 02:05:54;;;;;;;;;;;;;;;6.53;95.27;95889.59;30001;983;1881;-52
2024/02/27 02:06:25;;;;;;;;;;;;;;;6.52;96.59;95882.59;30001;983;1877;-53
2024/02/27 02:06:56;;;;;;;;;;;;;;;6.50;96.79;95884.78;30001;960;1904;-52
2024/02/27 02:07:28;;;;;;;;;;;;;;;6.49;95.62;95877.78;30001;983;1877;-52
2024/02/27 02:07:59;;;;;;;;;;;;;;;6.49;95.36;95877.78;30001;983;1881;-52
2024/02/27 02:08:32;;;;;;;;;;;;;;;6.50;95.40;95874.00;30001;983;1877;-52
2024/02/27 02:09:03;;;;;;;;;;;;;;;6.50;95.75;95878.59;30001;982;1882;-53
2024/02/27 02:09:34;;;;;;;;;;;;;;;6.50;95.67;95884.00;30001;982;1864;-52
2024/02/27 02:10:07;;;;;;;;;;;;;;;6.49;96.25;95882.38;30001;982;1873;-53
2024/02/27 02:10:38;;;;;;;;;;;;;;;6.48;95.75;95878.88;30001;982;1790;-52
2024/02/27 02:11:10;;;;;;;;;;;;;;;6.47;95.43;95885.37;30001;982;1882;-52
2024/02/27 02:11:42;;;;;;;;;;;;;;;6.48;95.58;95891.56;30001;982;1877;-52
2024/02/27 02:12:13;;;;;;;;;;;;;;;6.47;96.27;95890.75;30001;982;1882;-70
2024/02/27 02:12:44;;;;;;;;;;;;;;;6.47;96.28;95887.25;30001;983;1877;-52
2024/02/27 02:13:15;;;;;;;;;;;;;;;6.46;97.00;95893.75;30001;983;1881;-52
2024/02/27 02:13:46;;;;;;;;;;;;;;;6.44;96.78;95896.72;30001;983;1877;-53
2024/02/27 02:14:19;;;;;;;;;;;;;;;6.43;97.03;95895.13;30001;983;1881;-54
2024/02/27 02:14:51;;;;;;;;;;;;;;;6.42;96.98;95898.09;30001;983;1863;-52
2024/02/27 02:15:23;;;;;;;;;;;;;;;6.41;97.00;95900.00;30001;983;1872;-53
2024/02/27 02:17:01;;;;;;;;;;;;;;;6.41;96.32;95907.28;89991;930;13000;-52
2024/02/27 02:17:33;;;;;;;;;;;;;;;6.39;97.50;95900.28;30001;982;1868;-52
2024/02/27 02:18:04;;;;;;;;;;;;;;;6.36;97.60;95900.87;30001;982;1867;-51
2024/02/27 02:18:36;;;;;;;;;;;;;;;6.37;97.58;95898.97;30001;982;1881;-52
2024/02/27 02:19:06;;;;;;;;;;;;;;;6.35;98.31;95903.84;30001;982;1876;-52
2024/02/27 02:19:37;;;;;;;;;;;;;;;6.35;97.78;95909.22;30001;983;1879;-51
2024/02/27 02:20:14;;;;;;;;;;;;;;;6.35;97.66;95911.94;30001;983;1862;-51
2024/02/27 02:20:46;;;;;;;;;;;;;;;6.33;98.29;95896.06;30001;983;1871;-53
2024/02/27 02:21:17;;;;;;;;;;;;;;;6.34;98.63;95907.63;30001;983;1875;-52
2024/02/27 02:21:50;;;;;;;;;;;;;;;6.33;98.08;95904.12;30001;983;1879;-52
2024/02/27 02:22:21;;;;;;;;;;;;;;;6.33;97.39;95906.03;30001;983;1875;-52
2024/02/27 02:22:52;;;;;;;;;;;;;;;6.33;97.49;95906.81;30001;983;1880;-51
2024/02/27 02:23:22;;;;;;;;;;;;;;;6.34;97.07;95913.03;30001;983;1875;-53
2024/02/27 02:23:56;;;;;;;;;;;;;;;6.34;97.07;95907.63;30001;982;1880;-52
2024/02/27 02:24:29;;;;;;;;;;;;;;;6.35;96.98;95909.22;30001;982;1876;-52
2024/02/27 02:25:01;;;;;;;;;;;;;;;6.35;96.96;95906.53;30001;982;1880;-52
2024/02/27 02:25:34;;;;;;;;;;;;;;;6.36;96.97;95910.84;30001;982;1863;-52
2024/02/27 02:26:06;;;;;;;;;;;;;;;6.37;97.08;95912.44;30001;982;1871;-52
2024/02/27 02:26:38;;;;;;;;;;;;;;;6.38;96.96;95909.47;30001;982;1876;-52
2024/02/27 02:27:12;;;;;;;;;;;;;;;6.37;96.87;95907.84;30001;983;1879;-52
2024/02/27 02:27:43;;;;;;;;;;;;;;;6.37;98.35;95913.25;30001;983;1875;-50
2024/02/27 02:28:14;;;;;;;;;;;;;;;6.36;98.96;95916.22;30001;983;1879;-52
2024/02/27 02:28:46;;;;;;;;;;;;;;;6.36;98.77;95910.84;30001;983;1875;-52
2024/02/27 02:29:17;;;;;;;;;;;;;;;6.35;98.66;95914.63;30001;983;1879;-52
2024/02/27 02:29:47;;;;;;;;;;;;;;;6.36;99.43;95921.63;30001;983;1822;-52
2024/02/27 02:30:18;;;;;;;;;;;;;;;6.35;99.81;95917.31;30001;983;1880;-52
2024/02/27 02:30:50;;;;;;;;;;;;;;;6.33;99.27;95919.50;30001;983;1862;-51
2024/02/27 02:32:29;;;;;;;;;;;;;;;6.32;99.10;95916.00;89987;930;16990;-52
2024/02/27 02:33:00;;;;;;;;;;;;;;;6.32;99.24;95920.59;30001;982;1869;-52
2024/02/27 02:33:31;;;;;;;;;;;;;;;6.31;99.47;95925.16;30001;982;1869;-52
2024/02/27 02:34:02;;;;;;;;;;;;;;;6.31;98.98;95918.97;30001;982;1881;-52
2024/02/27 02:34:33;;;;;;;;;;;;;;;6.30;98.37;95918.19;30001;982;1877;-52
2024/02/27 02:35:04;;;;;;;;;;;;;;;6.31;98.81;95916.28;30001;982;1881;-52
2024/02/27 02:35:35;;;;;;;;;;;;;;;6.31;98.61;95924.38;30001;983;1876;-52
2024/02/27 02:36:06;;;;;;;;;;;;;;;6.31;99.53;95921.69;30001;983;1868;-52
2024/02/27 02:36:37;;;;;;;;;;;;;;;6.30;99.55;95923.56;30001;983;1867;-52
2024/02/27 02:37:08;;;;;;;;;;;;;;;6.30;98.91;95925.47;30001;983;1881;-51
2024/02/27 02:37:39;;;;;;;;;;;;;;;6.31;98.47;95935.94;30001;983;1877;-68
2024/02/27 02:38:10;;;;;;;;;;;;;;;6.31;98.59;95924.38;30001;983;1881;-52
2024/02/27 02:38:41;;;;;;;;;;;;;;;6.32;98.94;95925.97;30001;983;1876;-52
2024/02/27 02:39:11;;;;;;;;;;;;;;;6.30;99.45;95923.56;30001;983;1881;-53
2024/02/27 02:39:42;;;;;;;;;;;;;;;6.30;99.70;95926.25;30001;983;1779;-52
2024/02/27 02:40:14;;;;;;;;;;;;;;;6.29;100.00;95913.06;30001;982;1881;-52
2024/02/27 02:40:46;;;;;;;;;;;;;;;6.28;100.00;95924.94;30001;982;1877;-52
2024/02/27 02:41:17;;;;;;;;;;;;;;;6.26;99.97;95919.84;30001;982;1868;-52
2024/02/27 02:41:48;;;;;;;;;;;;;;;6.27;99.68;95923.34;30001;982;1868;-52
2024/02/27 02:42:18;;;;;;;;;;;;;;;6.27;99.91;95928.72;30001;982;1881;-52
2024/02/27 02:42:49;;;;;;;;;;;;;;;6.27;99.24;95917.94;30001;982;1877;-53
2024/02/27 02:43:23;;;;;;;;;;;;;;;6.27;99.14;95917.94;30001;983;1880;-52
2024/02/27 02:43:54;;;;;;;;;;;;;;;6.28;98.94;95919.56;30001;983;1782;-52
2024/02/27 02:44:25;;;;;;;;;;;;;;;6.28;98.96;95919.56;30001;983;1881;-52
2024/02/27 02:44:56;;;;;;;;;;;;;;;6.28;99.16;95919.56;30001;983;1776;-52
2024/02/27 02:45:27;;;;;;;;;;;;;;;6.28;99.09;95922.25;30001;983;1881;-53
2024/02/27 02:45:58;;;;;;;;;;;;;;;6.28;99.47;95920.34;30001;963;1896;-53
2024/02/27 02:47:38;;;;;;;;;;;;;;;6.28;98.88;95919.56;89987;930;17000;-52
2024/02/27 02:48:09;;;;;;;;;;;;;;;6.28;98.68;95914.16;30001;982;1869;-52
2024/02/27 02:48:40;;;;;;;;;;;;;;;6.28;98.58;95927.62;30001;982;1869;-52
2024/02/27 02:49:11;;;;;;;;;;;;;;;6.28;99.39;95922.25;30001;982;1881;-52
2024/02/27 02:49:42;;;;;;;;;;;;;;;6.26;99.00;95921.72;30001;982;1877;-52
2024/02/27 02:50:13;;;;;;;;;;;;;;;6.25;99.50;95920.94;30001;983;1881;-52
2024/02/27 02:50:45;;;;;;;;;;;;;;;6.25;99.17;95925.53;30001;983;1876;-52
2024/02/27 02:51:16;;;;;;;;;;;;;;;6.25;99.44;95925.53;30001;983;1881;-52
2024/02/27 02:51:46;;;;;;;;;;;;;;;6.25;99.10;95930.91;30001;983;1877;-52
2024/02/27 02:52:17;;;;;;;;;;;;;;;6.25;99.12;95930.91;30001;983;1881;-52
2024/02/27 02:52:48;;;;;;;;;;;;;;;6.24;99.38;95929.31;30001;983;1877;-52
2024/02/27 02:53:19;;;;;;;;;;;;;;;6.24;98.88;95929.31;30001;983;1868;-52
2024/02/27 02:53:50;;;;;;;;;;;;;;;6.23;98.62;95931.22;30001;983;1868;-52
2024/02/27 02:54:21;;;;;;;;;;;;;;;6.25;98.70;95925.53;30001;983;1881;-53
2024/02/27 02:54:52;;;;;;;;;;;;;;;6.25;98.36;95925.53;30001;983;1877;-52
2024/02/27 02:55:23;;;;;;;;;;;;;;;6.26;98.22;95940.59;30001;982;1881;-53
2024/02/27 02:55:53;;;;;;;;;;;;;;;6.25;98.11;95942.47;30001;982;1877;-52
2024/02/27 02:56:24;;;;;;;;;;;;;;;6.24;98.19;95940.88;30001;982;1881;-51
2024/02/27 02:56:55;;;;;;;;;;;;;;;6.25;97.90;95947.06;30001;982;1877;-52
2024/02/27 02:57:26;;;;;;;;;;;;;;;6.24;97.79;95950.84;30001;983;1881;-51
2024/02/27 02:57:57;;;;;;;;;;;;;;;6.23;97.69;95943.88;30001;983;1876;-52
2024/02/27 02:58:28;;;;;;;;;;;;;;;6.22;97.47;95944.97;30001;983;1868;-54
2024/02/27 02:58:59;;;;;;;;;;;;;;;6.19;96.94;95948.25;30001;983;1868;-52
2024/02/27 02:59:30;;;;;;;;;;;;;;;6.18;96.99;95946.66;30001;983;1881;-53